sensor_id;sensor_type;location;lat;lon;timestamp;P1;durP1;ratioP1;P2;durP2;ratioP2
10059;SDS011;5069;49.306;8.636;2023-07-20T00:01:26;3.40;;;1.97;;
10059;SDS011;5069;49.306;8.636;2023-07-20T00:04:27;4.57;;;1.83;;
10059;SDS011;5069;49.306;8.636;2023-07-20T00:07:29;3.40;;;1.80;;
10059;SDS011;5069;49.306;8.636;2023-07-20T00:10:31;3.33;;;2.13;;
10059;SDS011;5069;49.306;8.636;2023-07-20T00:13:32;2.60;;;1.67;;
10059;SDS011;5069;49.306;8.636;2023-07-20T00:16:34;4.03;;;2.10;;
10059;SDS011;5069;49.306;8.636;2023-07-20T00:19:35;3.10;;;2.10;;
10059;SDS011;5069;49.306;8.636;2023-07-20T00:22:37;4.37;;;2.10;;
10059;SDS011;5069;49.306;8.636;2023-07-20T00:25:38;2.83;;;2.07;;
10059;SDS011;5069;49.306;8.636;2023-07-20T00:28:40;5.03;;;1.77;;
10059;SDS011;5069;49.306;8.636;2023-07-20T00:31:41;3.33;;;2.00;;
10059;SDS011;5069;49.306;8.636;2023-07-20T00:34:44;4.80;;;1.90;;
10059;SDS011;5069;49.306;8.636;2023-07-20T00:37:46;3.90;;;2.00;;
10059;SDS011;5069;49.306;8.636;2023-07-20T00:40:47;5.30;;;1.90;;
10059;SDS011;5069;49.306;8.636;2023-07-20T00:43:51;2.27;;;1.63;;
10059;SDS011;5069;49.306;8.636;2023-07-20T00:46:53;2.00;;;1.70;;
10059;SDS011;5069;49.306;8.636;2023-07-20T00:49:55;3.43;;;1.80;;
10059;SDS011;5069;49.306;8.636;2023-07-20T00:52:57;3.20;;;1.83;;
10059;SDS011;5069;49.306;8.636;2023-07-20T00:55:59;2.30;;;2.00;;
10059;SDS011;5069;49.306;8.636;2023-07-20T00:59:01;2.37;;;1.93;;
10059;SDS011;5069;49.306;8.636;2023-07-20T01:02:03;2.63;;;2.00;;
10059;SDS011;5069;49.306;8.636;2023-07-20T01:05:05;2.37;;;1.90;;
10059;SDS011;5069;49.306;8.636;2023-07-20T01:08:13;3.17;;;2.07;;
10059;SDS011;5069;49.306;8.636;2023-07-20T01:14:38;2.83;;;2.00;;
10059;SDS011;5069;49.306;8.636;2023-07-20T01:17:41;2.63;;;1.70;;
10059;SDS011;5069;49.306;8.636;2023-07-20T01:20:42;3.77;;;1.90;;
10059;SDS011;5069;49.306;8.636;2023-07-20T01:27:20;3.20;;;1.90;;
10059;SDS011;5069;49.306;8.636;2023-07-20T01:30:42;5.93;;;2.20;;
10059;SDS011;5069;49.306;8.636;2023-07-20T01:33:45;2.63;;;1.80;;
10059;SDS011;5069;49.306;8.636;2023-07-20T01:36:48;3.73;;;2.13;;
10059;SDS011;5069;49.306;8.636;2023-07-20T01:39:52;3.10;;;2.10;;
10059;SDS011;5069;49.306;8.636;2023-07-20T01:42:56;2.87;;;1.80;;
10059;SDS011;5069;49.306;8.636;2023-07-20T01:45:58;5.20;;;2.07;;
10059;SDS011;5069;49.306;8.636;2023-07-20T01:49:01;3.03;;;1.90;;
10059;SDS011;5069;49.306;8.636;2023-07-20T01:52:05;2.43;;;1.80;;
10059;SDS011;5069;49.306;8.636;2023-07-20T01:55:07;5.20;;;2.30;;
10059;SDS011;5069;49.306;8.636;2023-07-20T01:58:09;3.23;;;1.93;;
10059;SDS011;5069;49.306;8.636;2023-07-20T02:01:10;3.13;;;2.07;;
10059;SDS011;5069;49.306;8.636;2023-07-20T02:04:12;4.20;;;2.50;;
10059;SDS011;5069;49.306;8.636;2023-07-20T02:07:14;3.53;;;2.00;;
10059;SDS011;5069;49.306;8.636;2023-07-20T02:10:16;3.73;;;1.90;;
10059;SDS011;5069;49.306;8.636;2023-07-20T02:13:18;6.10;;;2.10;;
10059;SDS011;5069;49.306;8.636;2023-07-20T02:16:19;2.97;;;2.23;;
10059;SDS011;5069;49.306;8.636;2023-07-20T02:19:21;4.83;;;2.27;;
10059;SDS011;5069;49.306;8.636;2023-07-20T02:22:23;4.30;;;2.20;;
10059;SDS011;5069;49.306;8.636;2023-07-20T02:25:25;2.53;;;2.17;;
10059;SDS011;5069;49.306;8.636;2023-07-20T02:28:26;2.30;;;2.07;;
10059;SDS011;5069;49.306;8.636;2023-07-20T02:31:28;4.37;;;1.90;;
10059;SDS011;5069;49.306;8.636;2023-07-20T02:34:30;2.43;;;2.00;;
10059;SDS011;5069;49.306;8.636;2023-07-20T02:37:31;2.80;;;2.10;;
10059;SDS011;5069;49.306;8.636;2023-07-20T02:40:33;4.43;;;2.20;;
10059;SDS011;5069;49.306;8.636;2023-07-20T02:43:34;5.00;;;2.13;;
10059;SDS011;5069;49.306;8.636;2023-07-20T02:46:37;4.23;;;2.00;;
10059;SDS011;5069;49.306;8.636;2023-07-20T02:49:39;2.63;;;1.90;;
10059;SDS011;5069;49.306;8.636;2023-07-20T02:52:41;2.73;;;1.97;;
10059;SDS011;5069;49.306;8.636;2023-07-20T02:55:42;4.47;;;2.30;;
10059;SDS011;5069;49.306;8.636;2023-07-20T02:58:44;6.07;;;2.47;;
10059;SDS011;5069;49.306;8.636;2023-07-20T03:01:47;4.63;;;2.20;;
10059;SDS011;5069;49.306;8.636;2023-07-20T03:04:49;4.57;;;2.20;;
10059;SDS011;5069;49.306;8.636;2023-07-20T03:07:50;8.13;;;2.40;;
10059;SDS011;5069;49.306;8.636;2023-07-20T03:10:52;5.90;;;2.20;;
10059;SDS011;5069;49.306;8.636;2023-07-20T03:13:53;2.50;;;2.30;;
10059;SDS011;5069;49.306;8.636;2023-07-20T03:16:56;3.13;;;2.40;;
10059;SDS011;5069;49.306;8.636;2023-07-20T03:19:58;3.60;;;2.23;;
10059;SDS011;5069;49.306;8.636;2023-07-20T03:23:03;3.30;;;2.00;;
10059;SDS011;5069;49.306;8.636;2023-07-20T03:26:05;4.20;;;2.40;;
10059;SDS011;5069;49.306;8.636;2023-07-20T03:29:09;3.30;;;2.40;;
10059;SDS011;5069;49.306;8.636;2023-07-20T03:32:11;2.43;;;2.23;;
10059;SDS011;5069;49.306;8.636;2023-07-20T03:35:13;2.90;;;2.20;;
10059;SDS011;5069;49.306;8.636;2023-07-20T03:38:16;4.73;;;2.50;;
10059;SDS011;5069;49.306;8.636;2023-07-20T03:41:18;3.03;;;2.20;;
10059;SDS011;5069;49.306;8.636;2023-07-20T03:44:21;4.43;;;2.17;;
10059;SDS011;5069;49.306;8.636;2023-07-20T03:47:22;3.20;;;2.40;;
10059;SDS011;5069;49.306;8.636;2023-07-20T03:50:26;3.60;;;2.10;;
10059;SDS011;5069;49.306;8.636;2023-07-20T03:53:27;2.73;;;2.20;;
10059;SDS011;5069;49.306;8.636;2023-07-20T03:56:29;3.73;;;2.60;;
10059;SDS011;5069;49.306;8.636;2023-07-20T03:59:36;2.83;;;2.50;;
10059;SDS011;5069;49.306;8.636;2023-07-20T04:02:38;3.97;;;2.33;;
10059;SDS011;5069;49.306;8.636;2023-07-20T04:05:40;2.30;;;2.10;;
10059;SDS011;5069;49.306;8.636;2023-07-20T04:08:41;4.40;;;2.50;;
10059;SDS011;5069;49.306;8.636;2023-07-20T04:11:43;3.97;;;2.50;;
10059;SDS011;5069;49.306;8.636;2023-07-20T04:14:44;3.03;;;2.30;;
10059;SDS011;5069;49.306;8.636;2023-07-20T04:17:46;4.63;;;2.70;;
10059;SDS011;5069;49.306;8.636;2023-07-20T04:20:47;3.20;;;2.23;;
10059;SDS011;5069;49.306;8.636;2023-07-20T04:23:49;4.90;;;2.60;;
10059;SDS011;5069;49.306;8.636;2023-07-20T04:26:50;3.73;;;2.30;;
10059;SDS011;5069;49.306;8.636;2023-07-20T04:29:52;4.17;;;2.43;;
10059;SDS011;5069;49.306;8.636;2023-07-20T04:32:54;2.53;;;2.20;;
10059;SDS011;5069;49.306;8.636;2023-07-20T04:35:55;3.07;;;2.60;;
10059;SDS011;5069;49.306;8.636;2023-07-20T04:39:03;3.60;;;2.30;;
10059;SDS011;5069;49.306;8.636;2023-07-20T04:42:17;3.80;;;2.50;;
10059;SDS011;5069;49.306;8.636;2023-07-20T04:45:18;2.63;;;2.20;;
10059;SDS011;5069;49.306;8.636;2023-07-20T04:48:20;6.83;;;2.53;;
10059;SDS011;5069;49.306;8.636;2023-07-20T04:51:24;3.67;;;2.30;;
10059;SDS011;5069;49.306;8.636;2023-07-20T04:54:28;4.60;;;2.60;;
10059;SDS011;5069;49.306;8.636;2023-07-20T04:57:30;6.60;;;2.93;;
10059;SDS011;5069;49.306;8.636;2023-07-20T05:00:32;6.57;;;2.70;;
10059;SDS011;5069;49.306;8.636;2023-07-20T05:03:34;5.63;;;2.50;;
10059;SDS011;5069;49.306;8.636;2023-07-20T05:06:36;4.23;;;2.77;;
10059;SDS011;5069;49.306;8.636;2023-07-20T05:09:40;6.93;;;2.47;;
10059;SDS011;5069;49.306;8.636;2023-07-20T05:12:42;4.17;;;2.30;;
10059;SDS011;5069;49.306;8.636;2023-07-20T05:15:44;4.97;;;2.50;;
10059;SDS011;5069;49.306;8.636;2023-07-20T05:18:48;5.63;;;2.60;;
10059;SDS011;5069;49.306;8.636;2023-07-20T05:21:50;3.87;;;2.10;;
10059;SDS011;5069;49.306;8.636;2023-07-20T05:24:52;4.03;;;2.50;;
10059;SDS011;5069;49.306;8.636;2023-07-20T05:27:53;3.13;;;2.30;;
10059;SDS011;5069;49.306;8.636;2023-07-20T05:30:56;4.70;;;2.53;;
10059;SDS011;5069;49.306;8.636;2023-07-20T05:34:00;6.63;;;3.00;;
10059;SDS011;5069;49.306;8.636;2023-07-20T05:37:02;5.03;;;2.37;;
10059;SDS011;5069;49.306;8.636;2023-07-20T05:40:04;3.70;;;2.30;;
10059;SDS011;5069;49.306;8.636;2023-07-20T05:43:07;4.50;;;2.70;;
10059;SDS011;5069;49.306;8.636;2023-07-20T05:46:08;4.27;;;2.50;;
10059;SDS011;5069;49.306;8.636;2023-07-20T05:49:11;3.13;;;2.43;;
10059;SDS011;5069;49.306;8.636;2023-07-20T05:52:13;4.27;;;2.80;;
10059;SDS011;5069;49.306;8.636;2023-07-20T05:55:14;5.53;;;2.60;;
10059;SDS011;5069;49.306;8.636;2023-07-20T05:58:16;3.63;;;2.70;;
10059;SDS011;5069;49.306;8.636;2023-07-20T06:01:17;5.80;;;2.80;;
10059;SDS011;5069;49.306;8.636;2023-07-20T06:04:20;4.90;;;2.60;;
10059;SDS011;5069;49.306;8.636;2023-07-20T06:07:21;3.27;;;2.47;;
10059;SDS011;5069;49.306;8.636;2023-07-20T06:10:23;3.73;;;2.33;;
10059;SDS011;5069;49.306;8.636;2023-07-20T06:13:24;3.33;;;2.73;;
10059;SDS011;5069;49.306;8.636;2023-07-20T06:16:26;3.23;;;2.50;;
10059;SDS011;5069;49.306;8.636;2023-07-20T06:19:27;3.27;;;2.30;;
10059;SDS011;5069;49.306;8.636;2023-07-20T06:22:29;4.00;;;2.53;;
10059;SDS011;5069;49.306;8.636;2023-07-20T06:25:30;5.80;;;2.50;;
10059;SDS011;5069;49.306;8.636;2023-07-20T06:28:32;8.63;;;2.77;;
10059;SDS011;5069;49.306;8.636;2023-07-20T06:31:34;7.73;;;2.90;;
10059;SDS011;5069;49.306;8.636;2023-07-20T06:34:36;4.47;;;2.70;;
10059;SDS011;5069;49.306;8.636;2023-07-20T06:37:39;6.00;;;2.57;;
10059;SDS011;5069;49.306;8.636;2023-07-20T06:40:40;3.77;;;2.33;;
10059;SDS011;5069;49.306;8.636;2023-07-20T06:43:47;5.53;;;2.90;;
10059;SDS011;5069;49.306;8.636;2023-07-20T06:46:49;6.17;;;2.40;;
10059;SDS011;5069;49.306;8.636;2023-07-20T06:49:51;3.93;;;2.50;;
10059;SDS011;5069;49.306;8.636;2023-07-20T06:52:53;5.87;;;3.07;;
10059;SDS011;5069;49.306;8.636;2023-07-20T06:55:54;3.83;;;2.27;;
10059;SDS011;5069;49.306;8.636;2023-07-20T06:58:58;8.57;;;2.67;;
10059;SDS011;5069;49.306;8.636;2023-07-20T07:01:59;5.57;;;2.60;;
10059;SDS011;5069;49.306;8.636;2023-07-20T07:05:01;4.80;;;2.80;;
10059;SDS011;5069;49.306;8.636;2023-07-20T07:08:19;7.70;;;3.00;;
10059;SDS011;5069;49.306;8.636;2023-07-20T07:11:21;7.37;;;2.70;;
10059;SDS011;5069;49.306;8.636;2023-07-20T07:14:23;4.67;;;2.67;;
10059;SDS011;5069;49.306;8.636;2023-07-20T07:17:28;4.00;;;2.80;;
10059;SDS011;5069;49.306;8.636;2023-07-20T07:20:30;4.27;;;2.70;;
10059;SDS011;5069;49.306;8.636;2023-07-20T07:23:32;4.73;;;2.60;;
10059;SDS011;5069;49.306;8.636;2023-07-20T07:26:33;3.57;;;2.50;;
10059;SDS011;5069;49.306;8.636;2023-07-20T07:29:35;3.50;;;2.53;;
10059;SDS011;5069;49.306;8.636;2023-07-20T07:32:36;5.07;;;2.53;;
10059;SDS011;5069;49.306;8.636;2023-07-20T07:35:38;4.20;;;2.40;;
10059;SDS011;5069;49.306;8.636;2023-07-20T07:38:40;2.33;;;2.07;;
10059;SDS011;5069;49.306;8.636;2023-07-20T07:42:01;4.37;;;2.20;;
10059;SDS011;5069;49.306;8.636;2023-07-20T07:45:03;4.20;;;2.40;;
10059;SDS011;5069;49.306;8.636;2023-07-20T07:48:05;4.07;;;2.40;;
10059;SDS011;5069;49.306;8.636;2023-07-20T07:51:07;6.43;;;2.37;;
10059;SDS011;5069;49.306;8.636;2023-07-20T07:54:10;4.13;;;2.10;;
10059;SDS011;5069;49.306;8.636;2023-07-20T07:57:11;2.97;;;2.27;;
10059;SDS011;5069;49.306;8.636;2023-07-20T08:00:13;2.83;;;1.83;;
10059;SDS011;5069;49.306;8.636;2023-07-20T08:03:16;3.73;;;2.00;;
10059;SDS011;5069;49.306;8.636;2023-07-20T08:06:17;3.53;;;1.97;;
10059;SDS011;5069;49.306;8.636;2023-07-20T08:09:19;5.27;;;1.97;;
10059;SDS011;5069;49.306;8.636;2023-07-20T08:12:20;3.63;;;1.83;;
10059;SDS011;5069;49.306;8.636;2023-07-20T08:15:22;3.90;;;1.80;;
10059;SDS011;5069;49.306;8.636;2023-07-20T08:18:24;5.67;;;1.73;;
10059;SDS011;5069;49.306;8.636;2023-07-20T08:21:26;3.87;;;1.60;;
10059;SDS011;5069;49.306;8.636;2023-07-20T08:24:27;5.33;;;1.73;;
10059;SDS011;5069;49.306;8.636;2023-07-20T08:27:29;2.40;;;1.50;;
10059;SDS011;5069;49.306;8.636;2023-07-20T08:30:43;3.50;;;1.60;;
10059;SDS011;5069;49.306;8.636;2023-07-20T08:33:45;2.63;;;1.83;;
10059;SDS011;5069;49.306;8.636;2023-07-20T08:36:47;3.20;;;2.07;;
10059;SDS011;5069;49.306;8.636;2023-07-20T08:39:48;3.00;;;1.80;;
10059;SDS011;5069;49.306;8.636;2023-07-20T08:42:50;2.90;;;2.00;;
10059;SDS011;5069;49.306;8.636;2023-07-20T08:45:52;4.30;;;2.10;;
10059;SDS011;5069;49.306;8.636;2023-07-20T08:48:56;3.50;;;2.30;;
10059;SDS011;5069;49.306;8.636;2023-07-20T08:51:58;3.57;;;2.10;;
10059;SDS011;5069;49.306;8.636;2023-07-20T08:55:00;3.40;;;2.00;;
10059;SDS011;5069;49.306;8.636;2023-07-20T08:58:04;3.43;;;2.30;;
10059;SDS011;5069;49.306;8.636;2023-07-20T09:01:10;4.43;;;2.30;;
10059;SDS011;5069;49.306;8.636;2023-07-20T09:04:12;2.90;;;2.07;;
10059;SDS011;5069;49.306;8.636;2023-07-20T09:07:14;3.60;;;2.13;;
10059;SDS011;5069;49.306;8.636;2023-07-20T09:10:17;3.40;;;2.00;;
10059;SDS011;5069;49.306;8.636;2023-07-20T09:13:18;4.57;;;2.20;;
10059;SDS011;5069;49.306;8.636;2023-07-20T09:16:21;4.50;;;2.07;;
10059;SDS011;5069;49.306;8.636;2023-07-20T09:19:23;2.20;;;1.97;;
10059;SDS011;5069;49.306;8.636;2023-07-20T09:22:29;2.37;;;1.90;;
10059;SDS011;5069;49.306;8.636;2023-07-20T09:25:31;3.73;;;2.40;;
10059;SDS011;5069;49.306;8.636;2023-07-20T09:28:36;2.50;;;2.00;;
10059;SDS011;5069;49.306;8.636;2023-07-20T09:31:43;4.80;;;2.20;;
10059;SDS011;5069;49.306;8.636;2023-07-20T09:35:02;2.63;;;1.90;;
10059;SDS011;5069;49.306;8.636;2023-07-20T09:38:06;2.23;;;1.60;;
10059;SDS011;5069;49.306;8.636;2023-07-20T09:41:13;3.83;;;1.47;;
10059;SDS011;5069;49.306;8.636;2023-07-20T09:44:22;2.93;;;1.60;;
10059;SDS011;5069;49.306;8.636;2023-07-20T09:47:27;2.73;;;1.80;;
10059;SDS011;5069;49.306;8.636;2023-07-20T09:50:30;2.23;;;1.67;;
10059;SDS011;5069;49.306;8.636;2023-07-20T09:53:32;5.97;;;1.90;;
10059;SDS011;5069;49.306;8.636;2023-07-20T09:56:34;5.17;;;1.80;;
10059;SDS011;5069;49.306;8.636;2023-07-20T09:59:36;4.10;;;2.07;;
10059;SDS011;5069;49.306;8.636;2023-07-20T10:02:41;3.70;;;2.10;;
10059;SDS011;5069;49.306;8.636;2023-07-20T10:05:47;3.83;;;1.70;;
10059;SDS011;5069;49.306;8.636;2023-07-20T10:09:02;3.73;;;1.53;;
10059;SDS011;5069;49.306;8.636;2023-07-20T10:12:10;3.83;;;1.87;;
10059;SDS011;5069;49.306;8.636;2023-07-20T10:15:23;5.22;;;2.10;;
10059;SDS011;5069;49.306;8.636;2023-07-20T10:18:29;2.55;;;1.55;;
10059;SDS011;5069;49.306;8.636;2023-07-20T10:21:42;4.05;;;1.73;;
10059;SDS011;5069;49.306;8.636;2023-07-20T10:24:56;3.97;;;2.17;;
10059;SDS011;5069;49.306;8.636;2023-07-20T10:28:00;5.72;;;3.00;;
10059;SDS011;5069;49.306;8.636;2023-07-20T10:31:03;4.00;;;1.90;;
10059;SDS011;5069;49.306;8.636;2023-07-20T10:34:05;4.28;;;2.08;;
10059;SDS011;5069;49.306;8.636;2023-07-20T10:37:07;5.90;;;1.90;;
10059;SDS011;5069;49.306;8.636;2023-07-20T10:40:27;4.25;;;1.80;;
10059;SDS011;5069;49.306;8.636;2023-07-20T10:43:29;3.30;;;1.90;;
10059;SDS011;5069;49.306;8.636;2023-07-20T10:46:49;3.67;;;1.95;;
10059;SDS011;5069;49.306;8.636;2023-07-20T10:50:00;4.43;;;1.70;;
10059;SDS011;5069;49.306;8.636;2023-07-20T10:53:20;3.85;;;2.00;;
10059;SDS011;5069;49.306;8.636;2023-07-20T10:56:22;4.65;;;2.20;;
10059;SDS011;5069;49.306;8.636;2023-07-20T11:02:28;2.33;;;1.70;;
10059;SDS011;5069;49.306;8.636;2023-07-20T11:05:43;6.20;;;3.33;;
10059;SDS011;5069;49.306;8.636;2023-07-20T11:08:44;2.55;;;1.73;;
10059;SDS011;5069;49.306;8.636;2023-07-20T11:11:49;4.80;;;1.77;;
10059;SDS011;5069;49.306;8.636;2023-07-20T11:14:57;4.68;;;1.80;;
10059;SDS011;5069;49.306;8.636;2023-07-20T11:18:10;2.20;;;1.80;;
10059;SDS011;5069;49.306;8.636;2023-07-20T11:21:13;3.40;;;1.70;;
10059;SDS011;5069;49.306;8.636;2023-07-20T11:24:17;1.83;;;1.50;;
10059;SDS011;5069;49.306;8.636;2023-07-20T11:27:19;3.88;;;1.80;;
10059;SDS011;5069;49.306;8.636;2023-07-20T11:30:23;3.42;;;1.70;;
10059;SDS011;5069;49.306;8.636;2023-07-20T11:33:25;4.20;;;1.60;;
10059;SDS011;5069;49.306;8.636;2023-07-20T11:36:27;3.83;;;1.80;;
10059;SDS011;5069;49.306;8.636;2023-07-20T11:39:32;4.30;;;1.88;;
10059;SDS011;5069;49.306;8.636;2023-07-20T11:42:33;3.58;;;1.70;;
10059;SDS011;5069;49.306;8.636;2023-07-20T11:45:38;2.67;;;1.73;;
10059;SDS011;5069;49.306;8.636;2023-07-20T11:48:40;1.77;;;1.50;;
10059;SDS011;5069;49.306;8.636;2023-07-20T11:51:42;5.45;;;1.70;;
10059;SDS011;5069;49.306;8.636;2023-07-20T11:54:43;3.88;;;1.70;;
10059;SDS011;5069;49.306;8.636;2023-07-20T11:58:05;2.35;;;1.63;;
10059;SDS011;5069;49.306;8.636;2023-07-20T12:01:08;1.95;;;1.70;;
10059;SDS011;5069;49.306;8.636;2023-07-20T12:04:10;3.05;;;1.80;;
10059;SDS011;5069;49.306;8.636;2023-07-20T12:07:11;3.45;;;1.67;;
10059;SDS011;5069;49.306;8.636;2023-07-20T12:10:13;2.67;;;1.88;;
10059;SDS011;5069;49.306;8.636;2023-07-20T12:13:14;2.58;;;1.98;;
10059;SDS011;5069;49.306;8.636;2023-07-20T12:16:16;2.47;;;1.60;;
10059;SDS011;5069;49.306;8.636;2023-07-20T12:19:19;2.28;;;1.63;;
10059;SDS011;5069;49.306;8.636;2023-07-20T12:22:20;1.98;;;1.65;;
10059;SDS011;5069;49.306;8.636;2023-07-20T12:25:22;2.45;;;1.60;;
10059;SDS011;5069;49.306;8.636;2023-07-20T12:28:23;2.53;;;1.65;;
10059;SDS011;5069;49.306;8.636;2023-07-20T12:31:25;3.90;;;1.58;;
10059;SDS011;5069;49.306;8.636;2023-07-20T12:34:27;1.73;;;1.48;;
10059;SDS011;5069;49.306;8.636;2023-07-20T12:37:29;2.67;;;1.73;;
10059;SDS011;5069;49.306;8.636;2023-07-20T12:40:30;2.67;;;1.52;;
10059;SDS011;5069;49.306;8.636;2023-07-20T12:43:32;4.22;;;1.83;;
10059;SDS011;5069;49.306;8.636;2023-07-20T12:46:34;1.83;;;1.70;;
10059;SDS011;5069;49.306;8.636;2023-07-20T12:49:38;2.70;;;1.67;;
10059;SDS011;5069;49.306;8.636;2023-07-20T12:52:40;1.60;;;1.50;;
10059;SDS011;5069;49.306;8.636;2023-07-20T12:55:42;1.63;;;1.50;;
10059;SDS011;5069;49.306;8.636;2023-07-20T12:58:43;3.08;;;1.80;;
10059;SDS011;5069;49.306;8.636;2023-07-20T13:01:45;2.25;;;1.58;;
10059;SDS011;5069;49.306;8.636;2023-07-20T13:04:47;2.60;;;1.67;;
10059;SDS011;5069;49.306;8.636;2023-07-20T13:07:48;3.58;;;1.80;;
10059;SDS011;5069;49.306;8.636;2023-07-20T13:10:52;1.77;;;1.60;;
10059;SDS011;5069;49.306;8.636;2023-07-20T13:13:54;3.70;;;1.95;;
10059;SDS011;5069;49.306;8.636;2023-07-20T13:16:56;2.22;;;1.60;;
10059;SDS011;5069;49.306;8.636;2023-07-20T13:19:57;1.83;;;1.50;;
10059;SDS011;5069;49.306;8.636;2023-07-20T13:22:59;2.03;;;1.63;;
10059;SDS011;5069;49.306;8.636;2023-07-20T13:26:00;2.00;;;1.60;;
10059;SDS011;5069;49.306;8.636;2023-07-20T13:29:02;2.60;;;1.63;;
10059;SDS011;5069;49.306;8.636;2023-07-20T13:32:04;3.97;;;1.48;;
10059;SDS011;5069;49.306;8.636;2023-07-20T13:35:08;3.03;;;1.90;;
10059;SDS011;5069;49.306;8.636;2023-07-20T13:38:09;1.90;;;1.42;;
10059;SDS011;5069;49.306;8.636;2023-07-20T13:41:11;2.10;;;1.50;;
10059;SDS011;5069;49.306;8.636;2023-07-20T13:44:13;4.72;;;1.77;;
10059;SDS011;5069;49.306;8.636;2023-07-20T13:47:17;1.65;;;1.55;;
10059;SDS011;5069;49.306;8.636;2023-07-20T13:50:22;1.67;;;1.58;;
10059;SDS011;5069;49.306;8.636;2023-07-20T13:53:28;3.42;;;1.52;;
10059;SDS011;5069;49.306;8.636;2023-07-20T13:56:33;2.90;;;1.50;;
10059;SDS011;5069;49.306;8.636;2023-07-20T13:59:34;2.40;;;1.58;;
10059;SDS011;5069;49.306;8.636;2023-07-20T14:02:36;2.05;;;1.40;;
10059;SDS011;5069;49.306;8.636;2023-07-20T14:05:41;1.90;;;1.42;;
10059;SDS011;5069;49.306;8.636;2023-07-20T14:08:47;1.92;;;1.60;;
10059;SDS011;5069;49.306;8.636;2023-07-20T14:11:50;2.35;;;1.30;;
10059;SDS011;5069;49.306;8.636;2023-07-20T14:14:54;1.60;;;1.50;;
10059;SDS011;5069;49.306;8.636;2023-07-20T14:17:57;2.05;;;1.50;;
10059;SDS011;5069;49.306;8.636;2023-07-20T14:20:59;2.38;;;1.35;;
10059;SDS011;5069;49.306;8.636;2023-07-20T14:24:01;2.60;;;1.50;;
10059;SDS011;5069;49.306;8.636;2023-07-20T14:27:03;2.80;;;1.67;;
10059;SDS011;5069;49.306;8.636;2023-07-20T14:30:05;1.75;;;1.40;;
10059;SDS011;5069;49.306;8.636;2023-07-20T14:33:07;2.40;;;1.40;;
10059;SDS011;5069;49.306;8.636;2023-07-20T14:36:08;1.42;;;1.33;;
10059;SDS011;5069;49.306;8.636;2023-07-20T14:39:11;1.88;;;1.50;;
10059;SDS011;5069;49.306;8.636;2023-07-20T14:42:13;1.73;;;1.63;;
10059;SDS011;5069;49.306;8.636;2023-07-20T14:45:14;2.28;;;1.40;;
10059;SDS011;5069;49.306;8.636;2023-07-20T14:48:16;1.92;;;1.67;;
10059;SDS011;5069;49.306;8.636;2023-07-20T14:51:17;2.50;;;1.50;;
10059;SDS011;5069;49.306;8.636;2023-07-20T14:54:19;2.45;;;1.55;;
10059;SDS011;5069;49.306;8.636;2023-07-20T14:57:20;4.93;;;1.70;;
10059;SDS011;5069;49.306;8.636;2023-07-20T15:00:24;3.15;;;1.67;;
10059;SDS011;5069;49.306;8.636;2023-07-20T15:03:26;1.73;;;1.20;;
10059;SDS011;5069;49.306;8.636;2023-07-20T15:06:27;2.67;;;1.50;;
10059;SDS011;5069;49.306;8.636;2023-07-20T15:09:31;2.22;;;1.50;;
10059;SDS011;5069;49.306;8.636;2023-07-20T15:12:33;5.15;;;1.50;;
10059;SDS011;5069;49.306;8.636;2023-07-20T15:15:34;1.58;;;1.40;;
10059;SDS011;5069;49.306;8.636;2023-07-20T15:18:36;2.50;;;1.73;;
10059;SDS011;5069;49.306;8.636;2023-07-20T15:21:48;2.47;;;1.30;;
10059;SDS011;5069;49.306;8.636;2023-07-20T15:24:50;1.92;;;1.70;;
10059;SDS011;5069;49.306;8.636;2023-07-20T15:27:52;1.92;;;1.58;;
10059;SDS011;5069;49.306;8.636;2023-07-20T15:30:58;3.75;;;1.52;;
10059;SDS011;5069;49.306;8.636;2023-07-20T15:34:01;3.22;;;1.80;;
10059;SDS011;5069;49.306;8.636;2023-07-20T15:37:02;1.85;;;1.60;;
10059;SDS011;5069;49.306;8.636;2023-07-20T15:40:04;4.25;;;1.95;;
10059;SDS011;5069;49.306;8.636;2023-07-20T15:43:06;2.53;;;1.58;;
10059;SDS011;5069;49.306;8.636;2023-07-20T15:49:45;2.17;;;1.42;;
10059;SDS011;5069;49.306;8.636;2023-07-20T15:52:47;1.52;;;1.38;;
10059;SDS011;5069;49.306;8.636;2023-07-20T15:55:53;1.80;;;1.27;;
10059;SDS011;5069;49.306;8.636;2023-07-20T15:58:57;1.83;;;1.45;;
10059;SDS011;5069;49.306;8.636;2023-07-20T16:01:59;1.75;;;1.30;;
10059;SDS011;5069;49.306;8.636;2023-07-20T16:05:01;2.78;;;1.50;;
10059;SDS011;5069;49.306;8.636;2023-07-20T16:08:05;1.63;;;1.40;;
10059;SDS011;5069;49.306;8.636;2023-07-20T16:11:07;2.60;;;1.55;;
10059;SDS011;5069;49.306;8.636;2023-07-20T16:14:09;3.95;;;1.35;;
10059;SDS011;5069;49.306;8.636;2023-07-20T16:17:12;3.38;;;1.55;;
10059;SDS011;5069;49.306;8.636;2023-07-20T16:20:13;1.88;;;1.40;;
10059;SDS011;5069;49.306;8.636;2023-07-20T16:23:15;1.60;;;1.50;;
10059;SDS011;5069;49.306;8.636;2023-07-20T16:26:17;1.85;;;1.50;;
10059;SDS011;5069;49.306;8.636;2023-07-20T16:29:18;3.53;;;1.80;;
10059;SDS011;5069;49.306;8.636;2023-07-20T16:32:23;1.83;;;1.45;;
10059;SDS011;5069;49.306;8.636;2023-07-20T16:35:25;1.77;;;1.42;;
10059;SDS011;5069;49.306;8.636;2023-07-20T16:38:46;3.97;;;1.38;;
10059;SDS011;5069;49.306;8.636;2023-07-20T16:41:48;2.25;;;1.25;;
10059;SDS011;5069;49.306;8.636;2023-07-20T16:44:53;2.13;;;1.65;;
10059;SDS011;5069;49.306;8.636;2023-07-20T16:47:55;3.85;;;1.48;;
10059;SDS011;5069;49.306;8.636;2023-07-20T16:50:58;3.55;;;1.50;;
10059;SDS011;5069;49.306;8.636;2023-07-20T16:54:00;1.20;;;1.20;;
10059;SDS011;5069;49.306;8.636;2023-07-20T16:57:03;2.08;;;1.40;;
10059;SDS011;5069;49.306;8.636;2023-07-20T17:00:05;1.63;;;1.48;;
10059;SDS011;5069;49.306;8.636;2023-07-20T17:03:12;1.65;;;1.40;;
10059;SDS011;5069;49.306;8.636;2023-07-20T17:06:13;1.73;;;1.42;;
10059;SDS011;5069;49.306;8.636;2023-07-20T17:09:15;3.65;;;1.75;;
10059;SDS011;5069;49.306;8.636;2023-07-20T17:12:17;2.10;;;1.55;;
10059;SDS011;5069;49.306;8.636;2023-07-20T17:15:18;2.00;;;1.80;;
10059;SDS011;5069;49.306;8.636;2023-07-20T17:18:20;2.00;;;1.73;;
10059;SDS011;5069;49.306;8.636;2023-07-20T17:21:21;1.80;;;1.50;;
10059;SDS011;5069;49.306;8.636;2023-07-20T17:24:23;1.67;;;1.58;;
10059;SDS011;5069;49.306;8.636;2023-07-20T17:27:28;3.90;;;3.13;;
10059;SDS011;5069;49.306;8.636;2023-07-20T17:30:29;1.88;;;1.73;;
10059;SDS011;5069;49.306;8.636;2023-07-20T17:33:31;2.28;;;1.50;;
10059;SDS011;5069;49.306;8.636;2023-07-20T17:36:33;2.72;;;1.35;;
10059;SDS011;5069;49.306;8.636;2023-07-20T17:39:37;2.20;;;1.70;;
10059;SDS011;5069;49.306;8.636;2023-07-20T17:42:42;3.28;;;1.55;;
10059;SDS011;5069;49.306;8.636;2023-07-20T17:45:49;2.85;;;1.65;;
10059;SDS011;5069;49.306;8.636;2023-07-20T17:48:55;1.40;;;1.30;;
10059;SDS011;5069;49.306;8.636;2023-07-20T17:51:56;1.92;;;1.40;;
10059;SDS011;5069;49.306;8.636;2023-07-20T17:54:59;2.28;;;1.55;;
10059;SDS011;5069;49.306;8.636;2023-07-20T17:58:01;1.73;;;1.63;;
10059;SDS011;5069;49.306;8.636;2023-07-20T18:01:04;5.22;;;2.30;;
10059;SDS011;5069;49.306;8.636;2023-07-20T18:04:05;1.98;;;1.63;;
10059;SDS011;5069;49.306;8.636;2023-07-20T18:07:09;1.65;;;1.55;;
10059;SDS011;5069;49.306;8.636;2023-07-20T18:10:11;2.55;;;2.22;;
10059;SDS011;5069;49.306;8.636;2023-07-20T18:13:12;4.18;;;2.47;;
10059;SDS011;5069;49.306;8.636;2023-07-20T18:16:14;2.95;;;1.80;;
10059;SDS011;5069;49.306;8.636;2023-07-20T18:19:15;2.25;;;1.85;;
10059;SDS011;5069;49.306;8.636;2023-07-20T18:22:17;2.00;;;1.60;;
10059;SDS011;5069;49.306;8.636;2023-07-20T18:25:18;1.52;;;1.42;;
10059;SDS011;5069;49.306;8.636;2023-07-20T18:28:20;2.85;;;1.70;;
10059;SDS011;5069;49.306;8.636;2023-07-20T18:31:22;2.83;;;1.58;;
10059;SDS011;5069;49.306;8.636;2023-07-20T18:34:24;3.63;;;1.80;;
10059;SDS011;5069;49.306;8.636;2023-07-20T18:37:26;3.08;;;1.88;;
10059;SDS011;5069;49.306;8.636;2023-07-20T18:40:27;1.70;;;1.60;;
10059;SDS011;5069;49.306;8.636;2023-07-20T18:43:29;1.88;;;1.63;;
10059;SDS011;5069;49.306;8.636;2023-07-20T18:46:30;2.97;;;2.20;;
10059;SDS011;5069;49.306;8.636;2023-07-20T18:49:32;4.97;;;2.35;;
10059;SDS011;5069;49.306;8.636;2023-07-20T18:52:33;6.25;;;1.85;;